Time;durP1;ratioP1;P1;durP2;ratioP2;P2;SDS_P1;SDS_P2;PMS_P1;PMS_P2;Temp;Humidity;BMP_temperature;BMP_pressure;BME280_temperature;BME280_humidity;BME280_pressure;Samples;Min_cycle;Max_cycle;Signal;HPM_P1;HPM_P2
2022/09/12 00:00:29;;;;;;;32.85;25.33;;;;;;;11.47;100.00;101741.81;6187081;23;20009;-79
2022/09/12 00:02:55;;;;;;;29.92;24.63;;;;;;;11.42;100.00;101743.81;6160420;23;20097;-77
2022/09/12 00:05:21;;;;;;;34.10;24.83;;;;;;;11.28;100.00;101726.41;6159405;23;20005;-78
2022/09/12 00:07:47;;;;;;;32.25;23.85;;;;;;;11.18;100.00;101717.47;6187177;23;20000;-79
2022/09/12 00:10:12;;;;;;;31.80;23.30;;;;;;;11.34;100.00;101739.03;6186639;23;20009;-80
2022/09/12 00:12:38;;;;;;;31.13;24.42;;;;;;;11.30;100.00;101739.25;6190209;23;20488;-76
2022/09/12 00:15:05;;;;;;;28.73;22.23;;;;;;;11.19;100.00;101727.72;6186934;23;20033;-79
2022/09/12 00:17:33;;;;;;;28.80;23.52;;;;;;;11.18;100.00;101726.03;6186973;23;20005;-75
2022/09/12 00:19:58;;;;;;;28.38;22.00;;;;;;;11.09;100.00;101711.00;6186746;23;20059;-78
2022/09/12 00:22:24;;;;;;;29.02;22.83;;;;;;;11.16;100.00;101714.94;6186997;23;20036;-75
2022/09/12 00:24:49;;;;;;;32.85;23.83;;;;;;;11.20;100.00;101724.22;6186874;23;20012;-75
2022/09/12 00:27:14;;;;;;;32.60;24.20;;;;;;;11.18;100.00;101723.47;6186380;23;20047;-80
2022/09/12 00:29:40;;;;;;;31.02;23.95;;;;;;;11.16;100.00;101727.03;6159759;23;20438;-74
2022/09/12 00:32:05;;;;;;;29.75;22.35;;;;;;;10.99;100.00;101702.03;6186713;23;20009;-75
2022/09/12 00:34:30;;;;;;;29.73;24.27;;;;;;;11.12;100.00;101725.53;6186490;23;20005;-79
2022/09/12 00:36:56;;;;;;;32.67;23.92;;;;;;;11.12;100.00;101722.97;6187038;23;20005;-75
2022/09/12 00:39:21;;;;;;;32.17;24.30;;;;;;;11.03;100.00;101706.16;6186621;23;20420;-76
2022/09/12 00:41:46;;;;;;;31.92;24.55;;;;;;;11.07;100.00;101712.00;6186421;23;20009;-74
2022/09/12 00:44:12;;;;;;;33.47;24.25;;;;;;;11.08;100.00;101718.84;6186387;23;20005;-76
2022/09/12 00:46:45;;;;;;;35.65;26.02;;;;;;;11.05;100.00;101712.09;6186467;23;20059;-77
2022/09/12 00:49:14;;;;;;;33.88;25.08;;;;;;;11.04;100.00;101713.00;6186152;23;20013;-80
2022/09/12 00:51:44;;;;;;;32.80;23.77;;;;;;;11.02;100.00;101712.25;6186457;23;20027;-75
2022/09/12 00:54:15;;;;;;;33.75;25.15;;;;;;;10.97;100.00;101706.47;6186521;23;20395;-75
2022/09/12 00:56:45;;;;;;;36.90;26.75;;;;;;;10.97;100.00;101700.47;6186076;23;20001;-80
2022/09/12 00:59:26;;;;;;;33.88;26.00;;;;;;;10.94;100.00;101696.28;6159195;23;20071;-81
2022/09/12 01:01:52;;;;;;;37.10;27.13;;;;;;;10.95;100.00;101697.97;6186123;23;20375;-80
2022/09/12 01:04:21;;;;;;;38.20;28.27;;;;;;;10.96;100.00;101696.22;6186678;23;20048;-81
2022/09/12 01:06:47;;;;;;;36.42;27.25;;;;;;;10.92;100.00;101703.28;6186612;23;20005;-80
2022/09/12 01:09:17;;;;;;;37.80;27.50;;;;;;;10.90;100.00;101700.75;6186194;23;20430;-80
2022/09/12 01:11:45;;;;;;;39.05;27.52;;;;;;;10.87;100.00;101689.75;6186418;23;20308;-80
2022/09/12 01:14:12;;;;;;;40.17;28.08;;;;;;;10.89;100.00;101693.91;6186147;23;20032;-80
2022/09/12 01:16:38;;;;;;;35.38;27.00;;;;;;;10.87;100.00;101695.75;6186310;23;20068;-79
2022/09/12 01:19:23;;;;;;;40.40;28.17;;;;;;;10.87;100.00;101690.59;6186465;23;20012;-79
2022/09/12 01:22:02;;;;;;;41.70;28.52;;;;;;;10.85;100.00;101689.00;6186502;23;20308;-80
2022/09/12 01:24:50;;;;;;;36.58;28.13;;;;;;;10.86;100.00;101688.09;6159033;23;20334;-80
2022/09/12 01:27:34;;;;;;;43.88;28.80;;;;;;;10.85;100.00;101686.41;6186274;23;20012;-79
2022/09/12 01:30:18;;;;;;;38.53;28.67;;;;;;;10.83;100.00;101688.25;6186102;23;20422;-81
2022/09/12 01:32:49;;;;;;;41.92;30.27;;;;;;;10.73;100.00;101674.13;6186172;23;20005;-80
2022/09/12 01:35:30;;;;;;;40.47;29.02;;;;;;;10.78;100.00;101680.72;6186139;23;20076;-80
2022/09/12 01:38:17;;;;;;;38.42;28.38;;;;;;;10.77;100.00;101673.03;6185869;23;20035;-80
2022/09/12 01:41:15;;;;;;;37.50;26.50;;;;;;;10.68;100.00;101658.00;6186049;23;20005;-81
2022/09/12 01:43:55;;;;;;;38.00;27.00;;;;;;;10.54;100.00;101644.03;6185675;23;20004;-80
2022/09/12 01:46:50;;;;;;;39.65;29.75;;;;;;;10.69;100.00;101663.09;6186274;23;20037;-80
2022/09/12 01:49:28;;;;;;;44.25;29.00;;;;;;;10.59;100.00;101652.38;6037317;23;20072;-78
2022/09/12 01:52:03;;;;;;;39.08;28.15;;;;;;;10.66;100.00;101660.66;6037319;23;20007;-80
2022/09/12 01:54:36;;;;;;;38.67;27.77;;;;;;;10.58;100.00;101655.88;6037497;23;20011;-80
2022/09/12 01:57:09;;;;;;;41.53;28.45;;;;;;;10.54;100.00;101645.78;6037208;23;20358;-81
2022/09/12 01:59:39;;;;;;;39.85;27.20;;;;;;;10.58;100.00;101655.03;6037259;23;20011;-80
2022/09/12 02:02:14;;;;;;;36.35;27.17;;;;;;;10.53;100.00;101644.13;6037250;23;20015;-80
2022/09/12 02:04:57;;;;;;;42.55;29.60;;;;;;;10.55;100.00;101643.13;6037432;23;20039;-82
2022/09/12 02:07:31;;;;;;;44.40;30.63;;;;;;;10.62;100.00;101647.06;6037006;23;20082;-80
2022/09/12 02:10:17;;;;;;;40.70;29.25;;;;;;;10.59;100.00;101649.78;6037279;23;20124;-80
2022/09/12 02:12:48;;;;;;;40.17;27.88;;;;;;;10.55;100.00;101645.69;6037269;23;20123;-81
2022/09/12 02:15:17;;;;;;;41.50;29.77;;;;;;;10.53;100.00;101636.38;6037115;23;20512;-78
2022/09/12 02:17:48;;;;;;;39.38;28.02;;;;;;;10.48;100.00;101630.59;6037308;23;20022;-81
2022/09/12 02:20:19;;;;;;;40.30;29.33;;;;;;;10.46;100.00;101622.91;6037171;23;20019;-80
2022/09/12 02:22:47;;;;;;;40.15;29.58;;;;;;;10.53;100.00;101638.94;6037142;23;20015;-82
2022/09/12 02:25:17;;;;;;;43.65;30.25;;;;;;;10.52;100.00;101632.97;6042002;23;20015;-81
2022/09/12 02:27:52;;;;;;;40.47;28.65;;;;;;;10.37;100.00;101609.63;6185752;23;20009;-81
2022/09/12 02:30:18;;;;;;;39.80;28.75;;;;;;;10.48;100.00;101634.00;6185422;23;20005;-82
2022/09/12 02:32:57;;;;;;;40.30;29.15;;;;;;;10.49;100.00;101643.41;6185662;23;20008;-80
2022/09/12 02:35:38;;;;;;;37.97;28.00;;;;;;;10.47;100.00;101640.09;6185387;23;20080;-80
2022/09/12 02:38:23;;;;;;;;;;;;;;;10.49;100.00;101642.59;6186368;23;20009;-80
2022/09/12 02:40:49;;;;;;;39.63;27.17;;;;;;;10.43;100.00;101641.16;6185838;23;19908;-80
2022/09/12 02:43:14;;;;;;;39.53;28.23;;;;;;;10.42;100.00;101639.50;6185605;23;20009;-79
2022/09/12 02:45:40;;;;;;;43.42;30.95;;;;;;;10.27;100.00;101615.25;6185340;23;20327;-81
2022/09/12 02:48:12;;;;;;;40.92;29.92;;;;;;;10.25;100.00;101608.50;6185384;23;20016;-81
2022/09/12 02:50:38;;;;;;;37.85;28.00;;;;;;;10.30;100.00;101612.50;6185387;23;20435;-80
2022/09/12 02:53:05;;;;;;;38.90;27.63;;;;;;;10.43;100.00;101636.00;6185343;23;20005;-80
2022/09/12 02:55:33;;;;;;;43.00;29.40;;;;;;;10.41;100.00;101630.03;6185520;23;19997;-81
2022/09/12 02:58:04;;;;;;;43.83;29.77;;;;;;;10.42;100.00;101634.31;6185539;23;20041;-81
2022/09/12 03:01:01;;;;;;;41.00;28.67;;;;;;;10.42;100.00;101628.28;6185497;23;20004;-81
2022/09/12 03:03:53;;;;;;;39.95;28.80;;;;;;;10.36;100.00;101623.44;6148471;23;20110;-82
2022/09/12 03:06:35;;;;;;;41.08;28.52;;;;;;;10.28;100.00;101610.91;6185742;23;20006;-81
2022/09/12 03:09:14;;;;;;;40.13;28.73;;;;;;;10.33;100.00;101614.13;6185364;23;20005;-81
2022/09/12 03:11:55;;;;;;;41.78;29.65;;;;;;;10.33;100.00;101614.13;6185376;23;20008;-81
2022/09/12 03:14:26;;;;;;;43.45;28.73;;;;;;;10.19;100.00;101588.94;6185133;23;20009;-79
2022/09/12 03:17:19;;;;;;;38.97;27.80;;;;;;;10.33;100.00;101609.78;6185549;23;20080;-80
2022/09/12 03:20:17;;;;;;;44.20;28.05;;;;;;;10.34;100.00;101614.03;6187299;23;20005;-78
2022/09/12 03:22:52;;;;;;;40.95;28.58;;;;;;;10.23;100.00;101602.56;6038573;23;20074;-81
2022/09/12 03:25:23;;;;;;;45.33;30.58;;;;;;;10.04;100.00;101567.31;6015580;23;20473;-81
2022/09/12 03:28:12;;;;;;;44.25;31.80;;;;;;;10.36;100.00;101606.22;6039143;23;20007;-81
2022/09/12 03:30:43;;;;;;;41.17;30.02;;;;;;;9.99;100.00;101542.63;6038261;23;20037;-79
2022/09/12 03:33:13;;;;;;;44.80;30.27;;;;;;;9.70;100.00;101487.31;6038547;23;20011;-80
2022/09/12 03:35:38;;;;;;;43.80;29.42;;;;;;;10.29;100.00;101587.59;6038822;23;20018;-80
2022/09/12 03:38:06;;;;;;;45.05;30.83;;;;;;;10.43;100.00;101601.59;6038755;23;20121;-80
2022/09/12 03:40:32;;;;;;;43.30;30.30;;;;;;;10.37;100.00;101581.22;6038685;23;20007;-81
2022/09/12 03:42:57;;;;;;;42.60;29.60;;;;;;;10.47;100.00;101601.34;6038552;23;20015;-81
2022/09/12 03:45:22;;;;;;;43.70;31.08;;;;;;;10.50;100.00;101603.75;6038098;23;20030;-82
2022/09/12 03:47:48;;;;;;;45.55;30.50;;;;;;;10.40;100.00;101581.06;6038560;23;20345;-80
2022/09/12 03:50:13;;;;;;;42.30;30.73;;;;;;;10.51;100.00;101599.44;6038469;23;20481;-81
2022/09/12 03:52:38;;;;;;;41.13;29.67;;;;;;;10.50;100.00;101595.19;6038560;23;20018;-80
2022/09/12 03:55:04;;;;;;;47.20;31.05;;;;;;;10.51;100.00;101602.84;6015044;23;20014;-81
2022/09/12 03:57:30;;;;;;;44.20;31.20;;;;;;;10.33;100.00;101570.22;6038297;23;20012;-76
2022/09/12 03:59:55;;;;;;;43.47;29.60;;;;;;;10.42;100.00;101587.84;6146358;23;20036;-78
2022/09/12 04:02:20;;;;;;;47.15;31.30;;;;;;;10.47;100.00;101591.03;6187098;23;20027;-76
2022/09/12 04:04:47;;;;;;;43.05;29.63;;;;;;;10.48;100.00;101591.84;6186913;23;20016;-81
2022/09/12 04:07:13;;;;;;;42.45;29.27;;;;;;;10.44;100.00;101580.03;6186879;23;20028;-76
2022/09/12 04:09:39;;;;;;;40.78;28.30;;;;;;;10.42;100.00;101584.41;6187269;23;20001;-77
2022/09/12 04:12:04;;;;;;;42.00;29.92;;;;;;;10.43;100.00;101581.78;6186651;23;20012;-76
2022/09/12 04:14:30;;;;;;;43.50;30.40;;;;;;;10.40;100.00;101581.91;6186798;23;20312;-76
2022/09/12 04:16:55;;;;;;;39.63;27.98;;;;;;;10.42;100.00;101576.66;6186677;23;20037;-78
2022/09/12 04:19:20;;;;;;;43.13;28.88;;;;;;;10.42;100.00;101584.41;6187024;23;20063;-77
2022/09/12 04:21:46;;;;;;;43.25;29.50;;;;;;;10.42;100.00;101584.41;6186808;23;20005;-77
2022/09/12 04:24:11;;;;;;;43.50;29.80;;;;;;;10.45;100.00;101581.69;6159470;23;20091;-76
2022/09/12 04:26:36;;;;;;;41.45;29.27;;;;;;;10.40;100.00;101570.75;6186493;23;20005;-77
2022/09/12 04:29:02;;;;;;;47.10;30.17;;;;;;;10.37;100.00;101560.56;6159139;23;20001;-80
2022/09/12 04:31:28;;;;;;;44.25;29.60;;;;;;;10.40;100.00;101558.66;6186392;23;20005;-76
2022/09/12 04:33:55;;;;;;;48.25;32.30;;;;;;;10.52;100.00;101564.94;6186531;23;20009;-77
2022/09/12 04:36:21;;;;;;;46.13;29.40;;;;;;;10.54;100.00;101566.56;6186546;23;19997;-77
2022/09/12 04:38:47;;;;;;;44.30;31.17;;;;;;;10.53;100.00;101562.31;6160288;23;20011;-76
2022/09/12 04:41:19;;;;;;;46.97;31.25;;;;;;;10.60;100.00;101568.81;6186415;23;19997;-76
2022/09/12 04:43:46;;;;;;;44.80;30.13;;;;;;;10.42;100.00;101528.47;6186479;23;20008;-77
2022/09/12 04:46:12;;;;;;;45.63;31.52;;;;;;;10.64;100.00;101561.75;6186412;23;20001;-76
2022/09/12 04:48:38;;;;;;;45.10;31.55;;;;;;;10.64;100.00;101556.59;6186372;23;20020;-77
2022/09/12 04:51:12;;;;;;;44.72;31.23;;;;;;;10.72;100.00;101562.19;6186337;23;20017;-77
2022/09/12 04:53:38;;;;;;;50.75;33.65;;;;;;;10.80;100.00;101561.78;6186499;23;20095;-78
2022/09/12 04:56:06;;;;;;;49.58;31.80;;;;;;;10.78;100.00;101561.88;6186497;23;20001;-80
2022/09/12 04:58:32;;;;;;;48.97;32.33;;;;;;;10.83;100.00;101564.22;6186540;23;20017;-76
2022/09/12 05:01:11;;;;;;;52.67;31.83;;;;;;;10.82;100.00;101555.66;6186092;23;20358;-77
2022/09/12 05:03:38;;;;;;;47.47;30.83;;;;;;;10.89;100.00;101563.88;6186210;23;20041;-76
2022/09/12 05:06:08;;;;;;;47.13;31.45;;;;;;;10.93;100.00;101557.66;6186249;23;20176;-76
2022/09/12 05:08:34;;;;;;;53.15;32.75;;;;;;;10.99;100.00;101556.47;6185992;23;20092;-75
2022/09/12 05:11:04;;;;;;;45.42;31.10;;;;;;;10.81;100.00;101529.84;6186408;23;20036;-75
2022/09/12 05:13:30;;;;;;;53.58;34.78;;;;;;;11.05;100.00;101563.94;6186468;23;20374;-76
2022/09/12 05:16:01;;;;;;;50.85;33.90;;;;;;;10.93;100.00;101549.91;6186143;23;20005;-75
2022/09/12 05:18:29;;;;;;;53.03;33.63;;;;;;;11.08;100.00;101569.75;6186467;23;20079;-79
2022/09/12 05:20:55;;;;;;;50.75;32.83;;;;;;;10.93;100.00;101544.75;6186542;23;20323;-75
2022/09/12 05:23:20;;;;;;;50.78;33.75;;;;;;;11.12;100.00;101567.84;6159470;23;20009;-75
2022/09/12 05:25:51;;;;;;;49.28;32.00;;;;;;;11.12;100.00;101571.28;6186370;23;20373;-76
2022/09/12 05:28:17;;;;;;;53.65;34.70;;;;;;;11.14;100.00;101566.03;6186157;23;20005;-75
2022/09/12 05:30:43;;;;;;;49.15;31.45;;;;;;;11.16;100.00;101570.19;6185825;23;20089;-75
2022/09/12 05:33:08;;;;;;;49.70;33.30;;;;;;;11.16;100.00;101556.44;6186378;23;20422;-76
2022/09/12 05:35:33;;;;;;;52.90;33.20;;;;;;;11.02;100.00;101533.09;6185922;23;20043;-76
2022/09/12 05:37:58;;;;;;;54.25;35.03;;;;;;;11.22;100.00;101555.28;6185681;23;20005;-76
2022/09/12 05:40:24;;;;;;;54.13;34.40;;;;;;;11.18;100.00;101546.84;6185808;23;20001;-75
2022/09/12 05:42:49;;;;;;;53.40;34.25;;;;;;;11.33;100.00;101556.34;6186016;23;20008;-75
2022/09/12 05:45:15;;;;;;;56.03;35.95;;;;;;;11.39;100.00;101573.28;6185711;23;20415;-76
2022/09/12 05:47:42;;;;;;;55.60;33.67;;;;;;;11.41;100.00;101567.13;6185790;23;20005;-80
2022/09/12 05:50:09;;;;;;;53.95;33.83;;;;;;;11.41;100.00;101550.78;6185639;23;20013;-75
2022/09/12 05:52:35;;;;;;;57.28;35.80;;;;;;;11.58;100.00;101567.94;6186077;23;20005;-74
2022/09/12 05:55:01;;;;;;;55.75;35.10;;;;;;;11.53;100.00;101544.09;6185975;23;20631;-77
2022/09/12 05:57:28;;;;;;;54.10;34.63;;;;;;;11.71;100.00;101574.94;6186205;23;20005;-79
2022/09/12 05:59:53;;;;;;;57.08;35.97;;;;;;;11.74;100.00;101564.41;6185562;23;20005;-77
2022/09/12 06:02:18;;;;;;;55.30;35.75;;;;;;;11.74;100.00;101564.41;6185776;23;20036;-76
2022/09/12 06:04:44;;;;;;;56.25;34.30;;;;;;;11.87;100.00;101579.28;6185781;23;20023;-77
2022/09/12 06:07:10;;;;;;;53.53;35.10;;;;;;;11.87;100.00;101585.28;6185777;23;20005;-80
2022/09/12 06:09:35;;;;;;;55.88;35.17;;;;;;;11.95;100.00;101585.69;6185719;23;20335;-76
2022/09/12 06:12:01;;;;;;;57.45;36.55;;;;;;;11.91;100.00;101567.84;6185669;23;20005;-76
2022/09/12 06:14:26;;;;;;;55.83;35.00;;;;;;;12.03;100.00;101574.91;6185683;23;20005;-77
2022/09/12 06:16:51;;;;;;;56.58;35.78;;;;;;;12.06;100.00;101577.31;6185766;23;20001;-75
2022/09/12 06:19:19;;;;;;;51.20;34.08;;;;;;;12.07;100.00;101582.41;6185611;23;20032;-76
2022/09/12 06:21:48;;;;;;;57.42;36.35;;;;;;;11.94;100.00;101554.72;6185655;23;20411;-76
2022/09/12 06:24:14;;;;;;;54.35;34.85;;;;;;;11.93;100.00;101559.06;6185466;23;20423;-76
2022/09/12 06:26:40;;;;;;;57.50;35.08;;;;;;;12.04;100.00;101576.56;6185794;23;20079;-78
2022/09/12 06:29:06;;;;;;;54.00;35.80;;;;;;;11.92;100.00;101561.75;6185611;23;20427;-78
2022/09/12 06:31:34;;;;;;;60.70;37.38;;;;;;;11.96;100.00;101574.41;6185004;23;20005;-78
2022/09/12 06:34:02;;;;;;;51.95;35.30;;;;;;;11.94;100.00;101578.84;6185306;23;20005;-79
2022/09/12 06:36:31;;;;;;;56.72;35.22;;;;;;;11.91;100.00;101575.63;6185796;23;20001;-78
2022/09/12 06:38:59;;;;;;;60.35;38.65;;;;;;;11.77;100.00;101553.88;6185386;23;20001;-78
2022/09/12 06:41:25;;;;;;;59.55;36.38;;;;;;;11.88;100.00;101574.00;6185378;23;20419;-77
2022/09/12 06:43:52;;;;;;;60.03;36.50;;;;;;;11.93;100.00;101572.00;6185806;23;20019;-75
2022/09/12 06:46:17;;;;;;;58.75;37.42;;;;;;;11.98;100.00;101556.19;6184146;23;20088;-75
2022/09/12 06:48:43;;;;;;;62.25;39.03;;;;;;;12.49;100.00;101572.25;6185590;23;20028;-74
2022/09/12 06:51:12;;;;;;;61.10;40.55;;;;;;;13.73;100.00;101573.22;6185191;23;20013;-75
2022/09/12 06:53:38;;;;;;;50.88;35.83;;;;;;;15.36;100.00;101571.72;6159881;23;20425;-78
2022/09/12 06:56:06;;;;;;;46.97;32.65;;;;;;;16.57;92.79;101571.47;6187468;23;20447;-76
2022/09/12 06:58:33;;;;;;;43.40;29.05;;;;;;;17.43;85.90;101552.56;6187342;23;20001;-75
2022/09/12 07:01:10;;;;;;;36.25;26.20;;;;;;;18.45;84.61;101548.50;6187072;23;20013;-75
2022/09/12 07:03:36;;;;;;;37.63;26.08;;;;;;;19.27;75.39;101566.72;6186901;23;20427;-76
2022/09/12 07:06:03;;;;;;;36.80;25.27;;;;;;;19.07;74.10;101573.69;6160859;23;20001;-78
2022/09/12 07:08:30;;;;;;;31.50;24.48;;;;;;;18.17;75.79;101569.13;6161151;23;20328;-79
2022/09/12 07:10:57;;;;;;;32.45;24.85;;;;;;;17.42;80.37;101564.78;6187473;23;20005;-78
2022/09/12 07:13:22;;;;;;;31.52;24.90;;;;;;;16.79;83.62;101552.41;6187566;23;20005;-77
2022/09/12 07:15:48;;;;;;;32.72;25.63;;;;;;;16.31;85.89;101563.81;6187093;23;20432;-79
2022/09/12 07:18:13;;;;;;;33.33;25.63;;;;;;;15.91;88.10;101563.38;6160685;23;20009;-78
2022/09/12 07:20:38;;;;;;;36.10;27.70;;;;;;;15.55;90.14;101558.22;6187681;23;20009;-81
2022/09/12 07:23:04;;;;;;;36.40;27.13;;;;;;;15.31;92.31;101556.41;6187041;23;20359;-80
2022/09/12 07:25:29;;;;;;;35.95;27.42;;;;;;;15.18;93.60;101556.47;6187355;23;20008;-79
2022/09/12 07:27:54;;;;;;;39.50;27.85;;;;;;;15.06;94.64;101553.91;6187098;23;20419;-78
2022/09/12 07:30:21;;;;;;;42.25;28.23;;;;;;;14.83;96.49;101524.28;6187248;23;20411;-78
2022/09/12 07:32:51;;;;;;;45.28;29.70;;;;;;;14.99;97.71;101550.91;6187034;23;20009;-76
2022/09/12 07:35:16;;;;;;;39.00;28.48;;;;;;;15.02;97.75;101557.66;6187147;23;20028;-76
2022/09/12 07:37:42;;;;;;;39.58;29.40;;;;;;;15.05;98.10;101557.44;6187462;23;20056;-76
2022/09/12 07:40:09;;;;;;;36.40;27.58;;;;;;;15.08;97.81;101565.03;6187328;23;20005;-77
2022/09/12 07:42:34;;;;;;;41.42;30.58;;;;;;;15.11;98.36;101570.00;6187247;23;20319;-79
2022/09/12 07:45:00;;;;;;;41.00;29.65;;;;;;;15.13;99.36;101561.16;6187038;23;20005;-76
2022/09/12 07:47:25;;;;;;;39.70;30.00;;;;;;;15.21;99.08;101563.22;6186738;23;20423;-81
2022/09/12 07:49:51;;;;;;;40.95;31.17;;;;;;;15.28;98.80;101561.03;6186878;23;20017;-79
2022/09/12 07:52:17;;;;;;;42.83;31.38;;;;;;;15.31;98.44;101560.78;6186875;23;19997;-76
2022/09/12 07:54:42;;;;;;;43.92;30.20;;;;;;;15.39;99.13;101559.31;6185591;23;20300;-75
2022/09/12 07:57:07;;;;;;;42.42;31.13;;;;;;;15.35;98.70;101544.03;6186250;23;20443;-73
2022/09/12 07:59:33;;;;;;;42.05;32.28;;;;;;;15.58;99.20;101566.63;6186720;23;20005;-78
2022/09/12 08:01:58;;;;;;;43.78;32.42;;;;;;;15.58;98.83;101545.81;6186521;23;20032;-75
2022/09/12 08:04:23;;;;;;;42.65;33.20;;;;;;;15.77;98.59;101567.00;6186178;23;20040;-80
2022/09/12 08:06:49;;;;;;;43.45;33.50;;;;;;;15.89;98.24;101565.25;6160649;23;20001;-78
2022/09/12 08:09:16;;;;;;;41.30;31.15;;;;;;;15.99;97.64;101568.00;6186547;23;20331;-82
2022/09/12 08:11:41;;;;;;;40.63;32.08;;;;;;;16.00;98.65;101544.44;6186577;23;20001;-80
2022/09/12 08:14:07;;;;;;;41.15;31.52;;;;;;;16.18;97.09;101567.47;6186677;23;20016;-80
2022/09/12 08:16:34;;;;;;;38.92;29.35;;;;;;;16.30;96.61;101571.75;6186796;23;20403;-80
2022/09/12 08:19:01;;;;;;;38.58;29.08;;;;;;;16.38;96.00;101568.59;6160037;23;20011;-81
2022/09/12 08:21:29;;;;;;;37.58;28.73;;;;;;;16.42;96.42;101573.47;6186770;23;20012;-81
2022/09/12 08:23:57;;;;;;;35.40;26.50;;;;;;;16.52;94.89;101571.81;6160255;23;20116;-79
2022/09/12 08:26:23;;;;;;;34.03;27.38;;;;;;;16.61;95.97;101571.09;6186812;23;20005;-80
2022/09/12 08:28:49;;;;;;;34.00;26.30;;;;;;;16.68;94.34;101571.50;6186592;23;20446;-78
2022/09/12 08:31:17;;;;;;;33.70;25.52;;;;;;;16.72;93.92;101575.53;6186519;23;20084;-80
2022/09/12 08:33:43;;;;;;;30.83;24.55;;;;;;;16.67;95.12;101556.78;6186299;23;20027;-81
2022/09/12 08:36:13;;;;;;;35.33;24.95;;;;;;;16.77;94.22;101573.41;6186831;23;20032;-81
2022/09/12 08:38:41;;;;;;;32.28;24.33;;;;;;;16.63;94.26;101547.53;6159781;23;20001;-82
2022/09/12 08:41:33;;;;;;;34.22;23.20;;;;;;;16.92;94.83;101585.28;6186479;23;20001;-81
2022/09/12 08:44:20;;;;;;;32.92;23.33;;;;;;;17.02;94.82;101579.34;6186282;23;20059;-81
2022/09/12 08:46:49;;;;;;;28.08;21.92;;;;;;;17.07;93.24;101577.19;6186510;23;20048;-81
2022/09/12 08:49:32;;;;;;;33.17;22.73;;;;;;;17.17;93.78;101572.91;6186170;23;20506;-79
2022/09/12 08:52:03;;;;;;;30.63;22.05;;;;;;;17.17;92.23;101563.28;6186708;23;20319;-76
2022/09/12 08:54:30;;;;;;;31.63;23.08;;;;;;;17.30;93.10;101576.19;6159795;23;20020;-82
2022/09/12 08:57:01;;;;;;;29.15;22.10;;;;;;;17.30;92.39;101563.13;6186373;23;20027;-78
2022/09/12 08:59:31;;;;;;;27.20;20.55;;;;;;;17.42;92.12;101569.19;6186726;23;20012;-82
2022/09/12 09:02:00;;;;;;;31.98;22.65;;;;;;;17.45;91.51;101559.31;6186519;23;20001;-78
2022/09/12 09:04:44;;;;;;;29.77;22.48;;;;;;;17.58;90.96;101573.97;6159760;23;20016;-73
2022/09/12 09:07:24;;;;;;;28.77;22.73;;;;;;;17.68;91.13;101567.88;6185948;23;20454;-79
2022/09/12 09:10:18;;;;;;;28.50;21.90;;;;;;;17.75;92.10;101569.09;6186587;23;20005;-78
2022/09/12 09:13:05;;;;;;;26.85;21.55;;;;;;;17.85;90.90;101561.31;6159783;23;20032;-77
2022/09/12 09:15:34;;;;;;;29.25;22.33;;;;;;;17.91;88.96;101567.84;6185717;23;20041;-79
2022/09/12 09:18:12;;;;;;;31.02;23.40;;;;;;;17.95;89.21;101546.56;6186070;23;20009;-81
2022/09/12 09:20:46;;;;;;;20.90;15.35;;;;;;;18.01;89.94;101525.16;6185860;23;20005;-83
2022/09/12 09:23:31;;;;;;;25.63;18.63;;;;;;;18.32;89.39;101553.94;6186281;23;20028;-81
2022/09/12 09:26:02;;;;;;;26.58;21.20;;;;;;;18.43;88.03;101563.50;6185964;23;20483;-80
2022/09/12 09:28:50;;;;;;;27.85;20.90;;;;;;;18.50;87.89;101554.19;6159152;23;20326;-80
2022/09/12 09:31:18;;;;;;;20.08;15.18;;;;;;;18.69;85.68;101553.47;6145224;23;20029;-81
2022/09/12 09:33:46;;;;;;;21.48;15.10;;;;;;;18.80;86.53;101548.97;6127077;23;20006;-80
2022/09/12 09:36:21;;;;;;;19.23;15.32;;;;;;;18.91;85.52;101553.28;6126862;23;20006;-80
2022/09/12 09:39:04;;;;;;;19.70;13.65;;;;;;;19.01;85.44;101541.06;6127057;23;20005;-81
2022/09/12 09:41:39;;;;;;;19.67;15.50;;;;;;;19.11;84.38;101552.38;6126656;23;20494;-81
2022/09/12 09:44:04;;;;;;;19.58;14.65;;;;;;;19.17;83.47;101549.22;6126685;23;20010;-80
2022/09/12 09:46:31;;;;;;;19.35;12.23;;;;;;;19.16;82.30;101534.44;6126624;23;20455;-80
2022/09/12 09:48:58;;;;;;;23.05;15.18;;;;;;;19.22;82.21;101516.56;6125332;23;20025;-79
2022/09/12 09:51:32;;;;;;;19.00;14.20;;;;;;;19.27;82.12;101509.97;6126242;23;20001;-81
2022/09/12 09:54:13;;;;;;;18.77;14.50;;;;;;;19.52;80.97;101524.31;6126694;23;20126;-79
2022/09/12 09:56:41;;;;;;;19.45;13.98;;;;;;;19.61;81.02;101526.13;6126250;23;20511;-78
2022/09/12 09:59:18;;;;;;;17.73;13.98;;;;;;;19.45;80.21;101489.13;6125899;23;20368;-81
2022/09/12 10:02:12;;;;;;;18.58;13.07;;;;;;;19.69;81.84;101517.59;6126051;23;20455;-79
2022/09/12 10:04:56;;;;;;;17.20;12.15;;;;;;;19.55;80.28;101481.28;6123590;23;20040;-81
2022/09/12 10:07:22;;;;;;;15.52;12.20;;;;;;;19.68;78.25;101490.56;6099689;23;20006;-80
2022/09/12 10:10:16;;;;;;;17.55;13.82;;;;;;;19.85;78.63;101511.75;6125667;23;20033;-80
2022/09/12 10:12:42;;;;;;;16.45;12.00;;;;;;;19.89;78.62;101510.53;6126508;23;20006;-81
2022/09/12 10:15:21;;;;;;;15.60;12.38;;;;;;;19.94;78.37;101506.50;6126366;23;20452;-81
2022/09/12 10:17:49;;;;;;;12.85;9.68;;;;;;;19.99;78.04;101506.91;6125883;23;20002;-82
2022/09/12 10:20:30;;;;;;;13.02;9.68;;;;;;;20.02;77.63;101500.56;6126178;23;20083;-81
2022/09/12 10:22:56;;;;;;;14.00;10.27;;;;;;;19.99;77.01;101482.50;6126152;23;20014;-84
2022/09/12 10:25:24;;;;;;;15.27;11.32;;;;;;;20.13;75.21;101497.75;6126282;23;20088;-83
2022/09/12 10:27:58;;;;;;;13.80;9.95;;;;;;;19.94;75.60;101454.06;6125973;23;20085;-83
2022/09/12 10:30:27;;;;;;;14.73;10.57;;;;;;;20.19;75.11;101491.13;6124588;23;20040;-80
2022/09/12 10:32:56;;;;;;;11.80;8.85;;;;;;;20.25;73.86;101490.53;6126118;23;20010;-81
2022/09/12 10:35:24;;;;;;;16.67;10.13;;;;;;;20.06;73.90;101436.41;6125954;23;20009;-81
2022/09/12 10:37:57;;;;;;;14.65;11.82;;;;;;;20.36;73.24;101477.28;6125987;23;20049;-80
2022/09/12 10:40:33;;;;;;;12.80;9.52;;;;;;;20.19;72.84;101452.63;6126155;23;20092;-81
2022/09/12 10:42:59;;;;;;;13.07;9.38;;;;;;;20.42;72.63;101468.81;6126066;23;20010;-81
2022/09/12 10:45:27;;;;;;;21.95;11.02;;;;;;;20.47;71.50;101466.63;6126124;23;20025;-79
2022/09/12 10:47:57;;;;;;;13.55;10.35;;;;;;;20.55;71.76;101458.84;6125881;23;20331;-78
2022/09/12 10:50:34;;;;;;;9.82;7.93;;;;;;;20.58;72.92;101445.44;6100152;23;20006;-81
2022/09/12 10:53:24;;;;;;;13.88;10.23;;;;;;;20.74;72.77;101450.03;6126278;23;20420;-81
2022/09/12 10:55:58;;;;;;;13.05;9.32;;;;;;;20.71;70.59;101445.06;6126241;23;20013;-81
2022/09/12 10:58:59;;;;;;;9.68;7.13;;;;;;;20.83;70.25;101451.75;6126123;23;20454;-81
2022/09/12 11:01:48;;;;;;;11.00;8.02;;;;;;;20.93;69.64;101451.69;5980648;24;20008;-81
2022/09/12 11:04:19;;;;;;;10.50;7.32;;;;;;;20.94;66.89;101445.47;5957085;24;20018;-81
2022/09/12 11:07:15;;;;;;;10.68;6.95;;;;;;;21.04;69.06;101445.41;5956864;24;20098;-82
2022/09/12 11:10:10;;;;;;;10.95;7.70;;;;;;;20.89;68.15;101408.34;5980515;24;20462;-83
2022/09/12 11:12:47;;;;;;;10.13;7.43;;;;;;;21.11;67.96;101433.31;5980411;24;20132;-82
2022/09/12 11:15:37;;;;;;;10.75;7.07;;;;;;;21.15;69.09;101435.53;5980172;24;20019;-82
2022/09/12 11:18:14;;;;;;;11.50;7.30;;;;;;;21.24;68.00;101431.16;5980513;24;20012;-84
2022/09/12 11:20:50;;;;;;;8.10;6.05;;;;;;;21.29;66.24;101430.72;5980299;24;20012;-81